createdAt,value
2022-10-02T00:00:14.345Z,100682.75390625
2022-10-02T00:01:17.472Z,100679.28125
2022-10-02T00:02:14.649Z,100681.3359375
2022-10-02T00:03:14.340Z,100678.4296875
2022-10-02T00:04:14.458Z,100679.69140625
2022-10-02T00:05:14.395Z,100678.265625
2022-10-02T00:06:14.461Z,100677.61328125
2022-10-02T00:07:14.637Z,100683.453125
2022-10-02T00:08:14.715Z,100685.484375
2022-10-02T00:09:14.445Z,100685.80078125
2022-10-02T00:10:14.266Z,100687.73046875
2022-10-02T00:11:14.247Z,100689.16015625
2022-10-02T00:12:20.333Z,100690.06640625
2022-10-02T00:13:14.343Z,100691.2265625
2022-10-02T00:14:14.335Z,100689.5390625
2022-10-02T00:15:14.292Z,100682.7421875
2022-10-02T00:16:14.297Z,100683.515625
2022-10-02T00:17:14.710Z,100685.8125
2022-10-02T00:18:14.394Z,100686.08203125
2022-10-02T00:19:14.287Z,100686.64453125
2022-10-02T00:20:14.279Z,100690.61328125
2022-10-02T00:21:14.396Z,100690.1796875
2022-10-02T00:22:14.635Z,100694.5078125
2022-10-02T00:23:20.332Z,100689.703125
2022-10-02T00:24:14.435Z,100693.3671875
2022-10-02T00:25:14.382Z,100696.09375
2022-10-02T00:26:14.373Z,100697.3125
2022-10-02T00:27:14.711Z,100698.60546875
2022-10-02T00:28:14.574Z,100700.203125
2022-10-02T00:29:14.377Z,100698.125
2022-10-02T00:30:14.384Z,100700.25
2022-10-02T00:31:14.510Z,100701.80078125
2022-10-02T00:32:14.710Z,100700.984375
2022-10-02T00:33:14.379Z,100701.78515625
2022-10-02T00:34:17.278Z,100703.05078125
2022-10-02T00:35:14.341Z,100700.95703125
2022-10-02T00:36:14.255Z,100702.88671875
2022-10-02T00:37:14.715Z,100701.734375
2022-10-02T00:38:14.670Z,100704.50390625
2022-10-02T00:39:14.418Z,100703.640625
2022-10-02T00:40:14.318Z,100703.65234375
2022-10-02T00:41:14.257Z,100701.77734375
2022-10-02T00:42:14.699Z,100697.34375
2022-10-02T00:43:14.380Z,100699.515625
2022-10-02T00:44:14.373Z,100701.64453125
2022-10-02T00:45:17.412Z,100704.125
2022-10-02T00:46:14.407Z,100704.88671875
2022-10-02T00:47:14.708Z,100705.76171875
2022-10-02T00:48:14.409Z,100702.91015625
2022-10-02T00:49:14.301Z,100705.4921875
2022-10-02T00:50:14.333Z,100710.5
2022-10-02T00:51:14.415Z,100713.89453125
2022-10-02T00:52:14.705Z,100718.41796875
2022-10-02T00:53:14.668Z,100716.7265625
2022-10-02T00:54:14.354Z,100708.34765625
2022-10-02T00:55:14.268Z,100702.015625
2022-10-02T00:56:17.287Z,100699.44921875
2022-10-02T00:57:14.672Z,100694.1875
2022-10-02T00:58:14.335Z,100688.41796875
2022-10-02T00:59:14.377Z,100689.625
2022-10-02T01:00:14.448Z,100693.00390625
2022-10-02T01:01:14.335Z,100698.04296875
2022-10-02T01:02:14.716Z,100699.46875
2022-10-02T01:03:14.380Z,100699.65234375
2022-10-02T01:04:14.332Z,100700.171875
2022-10-02T01:05:14.375Z,100697.48828125
2022-10-02T01:06:14.474Z,100699.73828125
2022-10-02T01:07:20.337Z,100697.5
2022-10-02T01:08:14.748Z,100697.421875
2022-10-02T01:09:14.471Z,100695.51171875
2022-10-02T01:10:14.340Z,100694.84375
2022-10-02T01:11:14.336Z,100687.45703125
2022-10-02T01:12:14.632Z,100686.5625
2022-10-02T01:13:14.345Z,100687.69921875
2022-10-02T01:14:14.277Z,100687.15234375
2022-10-02T01:15:14.285Z,100687.1953125
2022-10-02T01:16:14.362Z,100685.44921875
2022-10-02T01:17:14.703Z,100680.82421875
2022-10-02T01:18:17.351Z,100681.78515625
2022-10-02T01:19:14.336Z,100680.67578125
2022-10-02T01:20:14.264Z,100685.87109375
2022-10-02T01:21:14.241Z,100680.2265625
2022-10-02T01:22:14.703Z,100682.875
2022-10-02T01:23:14.649Z,100678.765625
2022-10-02T01:24:14.421Z,100674.91015625
2022-10-02T01:25:14.357Z,100671.421875
2022-10-02T01:26:14.376Z,100668
2022-10-02T01:27:14.631Z,100673.3125
2022-10-02T01:28:14.439Z,100672.58984375
2022-10-02T01:29:17.288Z,100673.15234375
2022-10-02T01:30:14.354Z,100677.35546875
2022-10-02T01:31:14.352Z,100680.75
2022-10-02T01:32:14.713Z,100687.75390625
2022-10-02T01:33:14.338Z,100691.28125
2022-10-02T01:34:14.385Z,100696.93359375
2022-10-02T01:35:14.264Z,100697.90234375
2022-10-02T01:36:14.363Z,100695.234375
2022-10-02T01:37:14.633Z,100698.7265625
2022-10-02T01:38:14.633Z,100697.83203125
2022-10-02T01:39:14.349Z,100703.23828125
2022-10-02T01:40:17.300Z,100706.2578125
2022-10-02T01:41:14.332Z,100708.171875
2022-10-02T01:42:14.706Z,100707.375
2022-10-02T01:43:14.365Z,100713.671875
2022-10-02T01:44:14.300Z,100712.5078125
2022-10-02T01:45:14.266Z,100711.984375
2022-10-02T01:46:14.432Z,100713.01171875
2022-10-02T01:47:14.703Z,100709.9609375
2022-10-02T01:48:14.449Z,100711.30078125
2022-10-02T01:49:14.438Z,100708.109375
2022-10-02T01:50:14.350Z,100701.60546875
2022-10-02T01:51:17.296Z,100700.89453125
2022-10-02T01:52:14.625Z,100702.80859375
2022-10-02T01:53:14.743Z,100701.82421875
2022-10-02T01:54:14.488Z,100699.30859375
2022-10-02T01:55:14.491Z,100697.21484375
2022-10-02T01:56:14.441Z,100693.6875
2022-10-02T01:57:14.630Z,100697.03125
2022-10-02T01:58:14.407Z,100692.9296875
2022-10-02T01:59:14.384Z,100697.53125
2022-10-02T02:00:14.408Z,100696.58984375
2022-10-02T02:01:14.388Z,100697.28515625
2022-10-02T02:02:20.417Z,100702.60546875
2022-10-02T02:03:14.346Z,100700.26171875
2022-10-02T02:04:14.279Z,100698.84375
2022-10-02T02:05:14.421Z,100703.05078125
2022-10-02T02:06:14.447Z,100705.078125
2022-10-02T02:07:14.702Z,100707.2578125
2022-10-02T02:08:14.637Z,100708.43359375
2022-10-02T02:09:14.274Z,100709.1484375
2022-10-02T02:10:14.343Z,100704.8515625
2022-10-02T02:11:14.417Z,100707.20703125
2022-10-02T02:12:14.710Z,100708.734375
2022-10-02T02:13:17.285Z,100710.99609375
2022-10-02T02:14:14.350Z,100708.796875
2022-10-02T02:15:14.255Z,100710.421875
2022-10-02T02:16:14.473Z,100708.5234375
2022-10-02T02:17:14.637Z,100711.75390625
2022-10-02T02:18:14.472Z,100712.52734375
2022-10-02T02:19:14.416Z,100715.38671875
2022-10-02T02:20:14.263Z,100709.23046875
2022-10-02T02:21:14.283Z,100712.46875
2022-10-02T02:22:14.709Z,100711.3671875
2022-10-02T02:23:14.635Z,100709.609375
2022-10-02T02:24:17.302Z,100711.3125
2022-10-02T02:25:14.472Z,100713.1796875
2022-10-02T02:26:14.275Z,100706.9140625
2022-10-02T02:27:14.705Z,100706.66796875
2022-10-02T02:28:14.561Z,100705.87890625
2022-10-02T02:29:14.406Z,100707.4609375
2022-10-02T02:30:14.362Z,100711.6796875
2022-10-02T02:31:14.392Z,100707.80859375
2022-10-02T02:32:14.706Z,100710.21875
2022-10-02T02:33:14.346Z,100708.94921875
2022-10-02T02:34:14.369Z,100708.015625
2022-10-02T02:35:17.435Z,100705.16015625
2022-10-02T02:36:14.483Z,100699.328125
2022-10-02T02:37:14.640Z,100697.671875
2022-10-02T02:38:14.829Z,100696.5
2022-10-02T02:39:14.369Z,100699.4921875
2022-10-02T02:40:14.396Z,100704.80859375
2022-10-02T02:41:14.344Z,100703.98046875
2022-10-02T02:42:17.709Z,100700.26953125
2022-10-02T02:43:14.362Z,100702.3828125
2022-10-02T02:44:14.270Z,100703.23046875
2022-10-02T02:45:14.282Z,100703.625
2022-10-02T02:46:17.273Z,100710.5625
2022-10-02T02:47:14.629Z,100708.71875
2022-10-02T02:48:14.378Z,100713.90234375
2022-10-02T02:49:14.420Z,100719.375
2022-10-02T02:50:14.471Z,100726.29296875
2022-10-02T02:51:14.401Z,100719.66796875
2022-10-02T02:52:14.634Z,100720.69921875
2022-10-02T02:53:14.395Z,100713.50390625
2022-10-02T02:54:14.339Z,100714.3125
2022-10-02T02:55:14.362Z,100717.984375
2022-10-02T02:56:14.372Z,100718.765625
2022-10-02T02:57:17.401Z,100719.64453125
2022-10-02T02:58:14.480Z,100724.8984375
2022-10-02T02:59:14.441Z,100720.99609375
2022-10-02T03:00:14.373Z,100717.3125
2022-10-02T03:01:14.527Z,100717.3046875
2022-10-02T03:02:14.765Z,100716.59765625
2022-10-02T03:03:14.273Z,100720.38671875
2022-10-02T03:04:14.292Z,100725.75390625
2022-10-02T03:05:14.293Z,100728.08203125
2022-10-02T03:06:14.273Z,100729.9296875
2022-10-02T03:07:14.705Z,100730.87109375
2022-10-02T03:08:20.353Z,100731.85546875
2022-10-02T03:09:14.435Z,100728.1640625
2022-10-02T03:10:14.441Z,100731.56640625
2022-10-02T03:11:14.338Z,100731.75
2022-10-02T03:12:14.708Z,100733.171875
2022-10-02T03:13:14.442Z,100729.78515625
2022-10-02T03:14:14.381Z,100724.4296875
2022-10-02T03:15:14.277Z,100719.6796875
2022-10-02T03:16:14.485Z,100718.1015625
2022-10-02T03:17:14.640Z,100720.0390625
2022-10-02T03:18:14.450Z,100718.6015625
2022-10-02T03:19:17.254Z,100724.1015625
2022-10-02T03:20:14.478Z,100715.1015625
2022-10-02T03:21:14.337Z,100718.0546875
2022-10-02T03:22:14.709Z,100717.4296875
2022-10-02T03:23:14.637Z,100713.33203125
2022-10-02T03:24:14.485Z,100710.27734375
2022-10-02T03:25:14.281Z,100710.7109375
2022-10-02T03:26:14.271Z,100707.421875
2022-10-02T03:27:14.710Z,100704.8984375
2022-10-02T03:28:14.434Z,100705.6484375
2022-10-02T03:29:14.257Z,100703.8359375
2022-10-02T03:30:17.310Z,100700.41015625
2022-10-02T03:31:14.418Z,100695.515625
2022-10-02T03:32:14.757Z,100696.2265625
2022-10-02T03:33:14.444Z,100702.16015625
2022-10-02T03:34:14.270Z,100702.5234375
2022-10-02T03:35:14.368Z,100701.51171875
2022-10-02T03:36:14.349Z,100697.73828125
2022-10-02T03:37:14.712Z,100695.10546875
2022-10-02T03:38:14.371Z,100694.2421875
2022-10-02T03:39:24.723Z,100697.46484375
2022-10-02T03:40:14.288Z,100693.56640625
2022-10-02T03:41:17.520Z,100691.546875
2022-10-02T03:42:14.477Z,100690.328125
2022-10-02T03:43:14.284Z,100689.99609375
2022-10-02T03:44:14.266Z,100691.640625
2022-10-02T03:45:32.773Z,100694.08984375
2022-10-02T03:46:14.478Z,100693.16015625
2022-10-02T03:47:14.637Z,100698.75
2022-10-02T03:48:14.269Z,100697.953125
2022-10-02T03:49:14.340Z,100702.41015625
2022-10-02T03:50:14.261Z,100701.76171875
2022-10-02T03:51:14.275Z,100705.0390625
2022-10-02T03:52:20.369Z,100711.9453125
2022-10-02T03:53:14.637Z,100711.87890625
2022-10-02T03:54:14.396Z,100711.53125
2022-10-02T03:55:14.384Z,100714.3359375
2022-10-02T03:56:14.373Z,100719.38671875
2022-10-02T03:57:14.706Z,100720.390625
2022-10-02T03:58:14.384Z,100728.44921875
2022-10-02T03:59:14.404Z,100728.75390625
2022-10-02T04:00:14.364Z,100728.5546875
2022-10-02T04:01:14.347Z,100731.6640625
2022-10-02T04:02:14.715Z,100730.99609375
2022-10-02T04:03:17.411Z,100730.66796875
2022-10-02T04:04:14.461Z,100729.93359375
2022-10-02T04:05:14.443Z,100731.8203125
2022-10-02T04:06:14.438Z,100729.41796875
2022-10-02T04:07:14.636Z,100727.58203125
2022-10-02T04:08:14.634Z,100730.0546875
2022-10-02T04:09:14.269Z,100731.1875
2022-10-02T04:10:14.272Z,100730.09375
2022-10-02T04:11:14.257Z,100723.17578125
2022-10-02T04:12:14.706Z,100722.12109375
2022-10-02T04:13:14.345Z,100722.7890625
2022-10-02T04:14:17.377Z,100726.4140625
2022-10-02T04:15:14.378Z,100726.95703125
2022-10-02T04:16:14.450Z,100726.234375
2022-10-02T04:17:14.278Z,100726.5078125
2022-10-02T04:18:14.277Z,100723.609375
2022-10-02T04:19:14.354Z,100723.09765625
2022-10-02T04:20:14.410Z,100725.16796875
2022-10-02T04:21:14.381Z,100722.13671875
2022-10-02T04:22:14.630Z,100726.984375
2022-10-02T04:23:14.740Z,100726.48828125
2022-10-02T04:24:14.457Z,100729.83203125
2022-10-02T04:25:17.408Z,100728.0859375
2022-10-02T04:26:14.443Z,100730.2109375
2022-10-02T04:27:14.701Z,100725.0234375
2022-10-02T04:28:14.583Z,100726.734375
2022-10-02T04:29:14.400Z,100727.67578125
2022-10-02T04:30:14.262Z,100725.4765625
2022-10-02T04:31:14.377Z,100724.16796875
2022-10-02T04:32:14.704Z,100727.35546875
2022-10-02T04:33:14.445Z,100724.5390625
2022-10-02T04:34:14.269Z,100725.27734375
2022-10-02T04:35:14.284Z,100726.80078125
2022-10-02T04:36:17.331Z,100723.18359375
2022-10-02T04:37:14.633Z,100722.29296875
2022-10-02T04:38:14.640Z,100722.21875
2022-10-02T04:39:14.478Z,100724
2022-10-02T04:40:14.433Z,100728.29296875
2022-10-02T04:41:14.262Z,100730.421875
2022-10-02T04:42:14.634Z,100735.73046875
2022-10-02T04:43:14.364Z,100731.41015625
2022-10-02T04:44:14.348Z,100732.0859375
2022-10-02T04:45:14.389Z,100736.4296875
2022-10-02T04:46:14.499Z,100732.38671875
2022-10-02T04:47:20.287Z,100734.00390625
2022-10-02T04:48:14.380Z,100732.4921875
2022-10-02T04:49:14.309Z,100732.33203125
2022-10-02T04:50:14.394Z,100735.08984375
2022-10-02T04:51:14.453Z,100732.1953125
2022-10-02T04:52:14.706Z,100733.078125
2022-10-02T04:53:14.764Z,100736.55859375
2022-10-02T04:54:14.258Z,100736.72265625
2022-10-02T04:55:14.273Z,100734.0859375
2022-10-02T04:56:14.261Z,100734.28125
2022-10-02T04:57:14.703Z,100736.04296875
2022-10-02T04:58:17.310Z,100734.1875
2022-10-02T04:59:14.381Z,100733.75
2022-10-02T05:00:14.397Z,100736.95703125
2022-10-02T05:01:14.498Z,100734.140625
2022-10-02T05:02:14.792Z,100737.7578125
2022-10-02T05:03:14.418Z,100735.3984375
2022-10-02T05:04:14.290Z,100732.34375
2022-10-02T05:05:14.408Z,100731.4140625
2022-10-02T05:06:14.351Z,100732.5078125
2022-10-02T05:07:14.711Z,100732.7890625
2022-10-02T05:08:14.619Z,100735.0546875
2022-10-02T05:09:17.389Z,100726.26953125
2022-10-02T05:10:14.357Z,100726.26953125
2022-10-02T05:11:14.241Z,100724.453125
2022-10-02T05:12:14.381Z,100722.9609375
2022-10-02T05:13:14.440Z,100723.55859375
2022-10-02T05:14:14.282Z,100721.97265625
2022-10-02T05:15:14.420Z,100723.51171875
2022-10-02T05:16:14.381Z,100722.73828125
2022-10-02T05:17:14.706Z,100722.8828125
2022-10-02T05:18:17.874Z,100724.5546875
2022-10-02T05:19:14.268Z,100721.4921875
2022-10-02T05:20:17.297Z,100718.75390625
2022-10-02T05:21:14.345Z,100718.859375
2022-10-02T05:22:14.712Z,100720.06640625
2022-10-02T05:23:14.639Z,100722.9140625
2022-10-02T05:24:14.365Z,100726.4453125
2022-10-02T05:25:14.356Z,100724.50390625
2022-10-02T05:26:14.650Z,100724.73046875
2022-10-02T05:27:14.704Z,100731.43359375
2022-10-02T05:28:14.493Z,100733.828125
2022-10-02T05:29:14.411Z,100729.86328125
2022-10-02T05:30:14.475Z,100727
2022-10-02T05:31:17.420Z,100727.13671875
2022-10-02T05:32:14.648Z,100724.328125
2022-10-02T05:33:14.445Z,100722.921875
2022-10-02T05:34:14.255Z,100723.8125
2022-10-02T05:35:14.370Z,100720.953125
2022-10-02T05:36:14.435Z,100723.91015625
2022-10-02T05:37:14.643Z,100721.984375
2022-10-02T05:38:14.363Z,100722.22265625
2022-10-02T05:39:14.415Z,100724.55859375
2022-10-02T05:40:14.349Z,100727.3984375
2022-10-02T05:41:14.250Z,100728.6171875
2022-10-02T05:42:20.304Z,100728.578125
2022-10-02T05:43:14.368Z,100727.6015625
2022-10-02T05:44:14.280Z,100727.109375
2022-10-02T05:45:14.287Z,100726.40234375
2022-10-02T05:46:14.280Z,100729.3203125
2022-10-02T05:47:14.702Z,100736.91015625
2022-10-02T05:48:14.372Z,100741.203125
2022-10-02T05:49:14.384Z,100743.59375
2022-10-02T05:50:14.390Z,100751.33203125
2022-10-02T05:51:14.286Z,100751.07421875
2022-10-02T05:52:14.708Z,100747.5234375
2022-10-02T05:53:19.569Z,100747.62890625
2022-10-02T05:54:14.367Z,100744.78125
2022-10-02T05:55:14.278Z,100744.9375
2022-10-02T05:56:14.387Z,100745.07421875
2022-10-02T05:57:14.627Z,100749.45703125
2022-10-02T05:58:14.460Z,100744.15234375
2022-10-02T05:59:14.258Z,100747.9453125
2022-10-02T06:00:14.373Z,100748.27734375
2022-10-02T06:01:14.526Z,100747.80078125
2022-10-02T06:02:14.699Z,100745.2734375
2022-10-02T06:03:14.370Z,100748.56640625
2022-10-02T06:04:17.353Z,100751.0234375
2022-10-02T06:05:14.335Z,100750.6875
2022-10-02T06:06:14.259Z,100753.03125
2022-10-02T06:07:14.283Z,100757.6171875
2022-10-02T06:08:14.705Z,100756.58203125
2022-10-02T06:09:18.953Z,100754.40234375
2022-10-02T06:10:14.305Z,100753.2109375
2022-10-02T06:11:14.345Z,100750.48828125
2022-10-02T06:12:14.716Z,100753.11328125
2022-10-02T06:13:14.453Z,100746.8046875
2022-10-02T06:14:14.382Z,100746.72265625
2022-10-02T06:15:17.325Z,100742.3671875
2022-10-02T06:16:14.598Z,100741.23046875
2022-10-02T06:17:14.628Z,100741.04296875
2022-10-02T06:18:14.485Z,100738.875
2022-10-02T06:19:14.383Z,100736.9375
2022-10-02T06:20:14.279Z,100737.83984375
2022-10-02T06:21:14.388Z,100736.69140625
2022-10-02T06:22:14.706Z,100733.83203125
2022-10-02T06:23:14.357Z,100737.59765625
2022-10-02T06:24:14.278Z,100734.24609375
2022-10-02T06:25:14.266Z,100728.76953125
2022-10-02T06:26:17.296Z,100731.69140625
2022-10-02T06:27:14.489Z,100731.54296875
2022-10-02T06:28:14.578Z,100733.57421875
2022-10-02T06:29:18.651Z,100734.30859375
2022-10-02T06:30:14.486Z,100733.22265625
2022-10-02T06:31:14.460Z,100735.49609375
2022-10-02T06:32:14.424Z,100733.8984375
2022-10-02T06:33:14.324Z,100736.5390625
2022-10-02T06:34:14.326Z,100740.26171875
2022-10-02T06:35:14.265Z,100737.8515625
2022-10-02T06:36:14.356Z,100736.45703125
2022-10-02T06:37:20.400Z,100737.05859375
2022-10-02T06:38:14.842Z,100741
2022-10-02T06:39:14.343Z,100738.921875
2022-10-02T06:40:14.340Z,100743.55078125
2022-10-02T06:41:14.247Z,100741.546875
2022-10-02T06:42:14.390Z,100743.41796875
2022-10-02T06:43:14.280Z,100746.37890625
2022-10-02T06:44:14.263Z,100745.11328125
2022-10-02T06:45:14.261Z,100749.3515625
2022-10-02T06:46:14.406Z,100750.28515625
2022-10-02T06:47:14.711Z,100748.88671875
2022-10-02T06:48:17.368Z,100749.046875
2022-10-02T06:49:14.477Z,100751.85546875
2022-10-02T06:50:14.386Z,100749.3359375
2022-10-02T06:51:14.279Z,100753.20703125
2022-10-02T06:52:14.707Z,100757.421875
2022-10-02T06:53:14.368Z,100750.2421875
2022-10-02T06:54:14.289Z,100756.64453125
2022-10-02T06:55:14.288Z,100759.671875
2022-10-02T06:56:14.395Z,100760.4921875
2022-10-02T06:57:14.625Z,100763.9375
2022-10-02T06:58:14.434Z,100765.234375
2022-10-02T06:59:17.399Z,100764.55859375
2022-10-02T07:00:14.477Z,100761.59765625
2022-10-02T07:01:14.474Z,100767.83984375
2022-10-02T07:02:14.851Z,100767.84765625
2022-10-02T07:03:14.472Z,100765.55859375
2022-10-02T07:04:14.280Z,100770.69921875
2022-10-02T07:05:14.274Z,100770.9765625
2022-10-02T07:06:14.276Z,100765.671875
2022-10-02T07:07:14.279Z,100764.7421875
2022-10-02T07:08:14.709Z,100767.80859375
2022-10-02T07:09:14.353Z,100768.35546875
2022-10-02T07:10:17.377Z,100767.8515625
2022-10-02T07:11:14.322Z,100769.5546875
2022-10-02T07:12:14.706Z,100769.859375
2022-10-02T07:13:14.340Z,100769.7734375
2022-10-02T07:14:14.374Z,100772.14453125
2022-10-02T07:15:14.380Z,100771.09765625
2022-10-02T07:16:14.426Z,100772.703125
2022-10-02T07:17:14.263Z,100768.06640625
2022-10-02T07:18:14.387Z,100770.05078125
2022-10-02T07:19:14.411Z,100767.6796875
2022-10-02T07:20:14.487Z,100770.04296875
2022-10-02T07:21:17.307Z,100770.90625
2022-10-02T07:22:32.715Z,100773.08984375
2022-10-02T07:23:14.505Z,100770.04296875
2022-10-02T07:24:14.368Z,100766.015625
2022-10-02T07:25:14.260Z,100765.41015625
2022-10-02T07:26:14.263Z,100763.73828125
2022-10-02T07:27:14.430Z,100766.4296875
2022-10-02T07:28:14.288Z,100768.2109375
2022-10-02T07:29:14.278Z,100770.15234375
2022-10-02T07:30:14.376Z,100771.40625
2022-10-02T07:31:14.459Z,100773.11328125
2022-10-02T07:32:17.784Z,100772.5859375
2022-10-02T07:33:14.467Z,100773.1796875
2022-10-02T07:34:14.401Z,100771.90234375
2022-10-02T07:35:14.439Z,100770.578125
2022-10-02T07:36:14.369Z,100768.15625
2022-10-02T07:37:14.634Z,100766.296875
2022-10-02T07:38:14.639Z,100771.48828125
2022-10-02T07:39:14.278Z,100765.50390625
2022-10-02T07:40:14.378Z,100765.87890625
2022-10-02T07:41:14.423Z,100768.7734375
2022-10-02T07:42:14.699Z,100774.00390625
2022-10-02T07:43:17.296Z,100772.19140625
2022-10-02T07:44:14.444Z,100769.390625
2022-10-02T07:45:14.278Z,100773.39453125
2022-10-02T07:46:14.439Z,100772.296875
2022-10-02T07:47:14.630Z,100771.57421875
2022-10-02T07:48:14.444Z,100771.77734375
2022-10-02T07:49:14.286Z,100771.6875
2022-10-02T07:50:14.263Z,100769.9453125
2022-10-02T07:51:17.983Z,100772.0234375
2022-10-02T07:52:14.723Z,100773.87109375
2022-10-02T07:53:14.466Z,100773.78515625
2022-10-02T07:54:17.387Z,100775.84375
2022-10-02T07:55:14.470Z,100773.66015625
2022-10-02T07:56:14.398Z,100772.9921875
2022-10-02T07:57:14.715Z,100778.3984375
2022-10-02T07:58:14.354Z,100776.9609375
2022-10-02T07:59:14.302Z,100770.9453125
2022-10-02T08:00:14.363Z,100773.92578125
2022-10-02T08:01:14.276Z,100776.23828125
2022-10-02T08:02:14.453Z,100781.99609375
2022-10-02T08:03:14.479Z,100782.9375
2022-10-02T08:04:14.280Z,100785.51953125
2022-10-02T08:05:17.270Z,100785.47265625
2022-10-02T08:06:14.344Z,100783.8046875
2022-10-02T08:07:14.412Z,100782.296875
2022-10-02T08:08:14.359Z,100783.44921875
2022-10-02T08:09:14.277Z,100783.5
2022-10-02T08:10:14.278Z,100785.2578125
2022-10-02T08:11:14.272Z,100782.56640625
2022-10-02T08:12:14.282Z,100785.59375
2022-10-02T08:13:14.278Z,100784.00390625
2022-10-02T08:14:14.271Z,100786.46484375
2022-10-02T08:15:14.263Z,100784.203125
2022-10-02T08:16:17.349Z,100786.80078125
2022-10-02T08:17:14.458Z,100779.6796875
2022-10-02T08:18:33.035Z,100786.48046875
2022-10-02T08:19:14.371Z,100785.4765625
2022-10-02T08:20:14.765Z,100791.578125
2022-10-02T08:21:14.369Z,100791.8515625
2022-10-02T08:22:14.636Z,100792.85546875
2022-10-02T08:23:14.370Z,100788.484375
2022-10-02T08:24:14.336Z,100790.5703125
2022-10-02T08:25:14.283Z,100791.1328125
2022-10-02T08:26:14.707Z,100791.55859375
2022-10-02T08:27:17.398Z,100790.6875
2022-10-02T08:28:14.485Z,100792.48828125
2022-10-02T08:29:14.373Z,100794.984375
2022-10-02T08:30:14.328Z,100789.6796875
2022-10-02T08:31:14.524Z,100791.2578125
2022-10-02T08:32:14.385Z,100788.59765625
2022-10-02T08:33:14.263Z,100785.15625
2022-10-02T08:34:14.251Z,100780.18359375
2022-10-02T08:35:14.297Z,100782.0546875
2022-10-02T08:36:14.262Z,100781.5390625
2022-10-02T08:37:14.712Z,100778.484375
2022-10-02T08:38:20.302Z,100782.01171875
2022-10-02T08:39:14.360Z,100780.8671875
2022-10-02T08:40:14.368Z,100777.3828125
2022-10-02T08:41:14.394Z,100776.97265625
2022-10-02T08:42:14.708Z,100768.54296875
2022-10-02T08:43:14.444Z,100773.390625
2022-10-02T08:44:14.416Z,100769.74609375
2022-10-02T08:45:14.283Z,100768.57421875
2022-10-02T08:46:14.330Z,100771.03515625
2022-10-02T08:47:14.482Z,100773.70703125
2022-10-02T08:48:14.387Z,100772.13671875
2022-10-02T08:49:17.359Z,100772.1640625
2022-10-02T08:50:14.336Z,100778.27734375
2022-10-02T08:51:14.288Z,100780.078125
2022-10-02T08:52:14.706Z,100784.80859375
2022-10-02T08:53:14.630Z,100788.140625
2022-10-02T08:54:14.403Z,100784.5859375
2022-10-02T08:55:14.421Z,100784.94140625
2022-10-02T08:56:19.842Z,100785.14453125
2022-10-02T08:57:14.632Z,100782.21875
2022-10-02T08:58:14.460Z,100787.3125
2022-10-02T08:59:14.347Z,100790.19921875
2022-10-02T09:00:17.308Z,100791.29296875
2022-10-02T09:01:14.406Z,100792.140625
2022-10-02T09:02:14.655Z,100796.1796875
2022-10-02T09:03:14.366Z,100791.21484375
2022-10-02T09:04:14.417Z,100797.38671875
2022-10-02T09:05:14.446Z,100797.04296875
2022-10-02T09:06:14.420Z,100800.5390625
2022-10-02T09:07:14.701Z,100801.36328125
2022-10-02T09:08:14.348Z,100804.2578125
2022-10-02T09:09:14.337Z,100803.390625
2022-10-02T09:10:14.417Z,100800.921875
2022-10-02T09:11:17.546Z,100799.9375
2022-10-02T09:12:14.656Z,100800.59375
2022-10-02T09:13:14.435Z,100799.33203125
2022-10-02T09:14:14.351Z,100799.6171875
2022-10-02T09:15:14.397Z,100796.46875
2022-10-02T09:16:14.402Z,100793.37109375
2022-10-02T09:17:14.838Z,100794.90625
2022-10-02T09:18:14.284Z,100789.8671875
2022-10-02T09:19:14.278Z,100788.73046875
2022-10-02T09:20:14.380Z,100789.9921875
2022-10-02T09:21:14.461Z,100791.625
2022-10-02T09:22:17.368Z,100793.46484375
2022-10-02T09:23:14.638Z,100791.1875
2022-10-02T09:24:14.462Z,100790.375
2022-10-02T09:25:14.466Z,100792.4296875
2022-10-02T09:26:14.424Z,100794.65625
2022-10-02T09:27:14.712Z,100793.41015625
2022-10-02T09:28:14.443Z,100793.65625
2022-10-02T09:29:14.373Z,100794.03125
2022-10-02T09:30:14.529Z,100790.4453125
2022-10-02T09:31:14.502Z,100789.9296875
2022-10-02T09:32:14.708Z,100790.99609375
2022-10-02T09:33:17.290Z,100794.88671875
2022-10-02T09:34:14.348Z,100795.921875
2022-10-02T09:35:14.312Z,100793.74609375
2022-10-02T09:36:14.275Z,100795.18359375
2022-10-02T09:37:14.710Z,100794.33984375
2022-10-02T09:38:14.450Z,100794.7734375
2022-10-02T09:39:14.369Z,100793.6484375
2022-10-02T09:40:14.415Z,100794.68359375
2022-10-02T09:41:14.400Z,100796.6796875
2022-10-02T09:42:14.508Z,100794.53515625
2022-10-02T09:43:14.344Z,100795.8515625
2022-10-02T09:44:17.321Z,100798.1640625
2022-10-02T09:45:14.343Z,100793.74609375
2022-10-02T09:46:14.399Z,100794.12890625
2022-10-02T09:47:14.495Z,100790.86328125
2022-10-02T09:48:14.458Z,100789.90625
2022-10-02T09:49:14.329Z,100789.0234375
2022-10-02T09:50:14.468Z,100792.7578125
2022-10-02T09:51:14.406Z,100794.171875
2022-10-02T09:52:14.435Z,100792.11328125
2022-10-02T09:53:14.893Z,100793.28125
2022-10-02T09:54:14.489Z,100792.90234375
2022-10-02T09:55:17.393Z,100792.0625
2022-10-02T09:56:14.487Z,100786.69140625
2022-10-02T09:57:14.701Z,100788.65625
2022-10-02T09:58:14.457Z,100789.61328125
2022-10-02T09:59:14.388Z,100786.59375
2022-10-02T10:00:14.388Z,100788.19921875